Valdez Pioneer Field
PAVD : now visible

Airfield :











YOU CAN JOIN US ON...

 
LOGIN :

Register | Disclaimer

   EN    FR    IT 

 









Legend :    VFR   Marginal VFR   IFR   Intensive IFR   Very Intensive IFR
Visi :
Ceiling :
>= 8 km
>= 3000ft
5 to 8 km
1000 to 3000 ft
1500m to 5 km
500 to 1000 ft
800 to 1500m
200 to 500 ft
< 800m
< 200 ft
Symbols :   Thunderstorms  Fog  Heavy snow  Heavy precipitations  Wind > 20 kt






- Airport Elevation : 121 ft
- IATA code : VDZ


PAVD - Valdez Pioneer Field

CURRENT METAR :
  • 271402Z AUTO 00000KT 7SM UP SCT004 BKN029 OVC049 M01/M01 A2966 RMK AO2 UPB01SNE01 P0000 FZRANO

EXPIRED METARs :
  • 271323Z AUTO 00000KT 10SM -SN SCT020 BKN037 OVC049 M01/M01 A2967 RMK AO2 UPE01B18E23SNB01E18B23 P0000 FZRANO
  • 271314Z AUTO 31003KT 9SM -SN BKN020 BKN041 OVC049 M01/M01 A2967 RMK AO2 UPE01SNB01 P0000 FZRANO
  • 271256Z AUTO 10004KT 6SM UP BR SCT025 BKN041 OVC049 M01/M01 A2968 RMK AO2 UPB1157E13B55SNE1157B13E55 SLP049 P0000 T10111011 FZRANO
  • 271252Z AUTO 00000KT 4SM -SN BR FEW017 BKN025 OVC049 M01/M01 A2968 RMK AO2 UPB1157E13SNE1157B13 P0000 FZRANO
  • 271242Z AUTO 00000KT 2 1/2SM -SN BR SCT016 OVC025 M01/M01 A2968 RMK AO2 UPB1157E13SNE1157B13 P0000 FZRANO
  • 271206Z AUTO 00000KT 6SM UP BR SCT016 OVC031 M01/M01 A2970 RMK AO2 UPB1157SNE1157 P0000 FZRANO
  • 271156Z AUTO 00000KT 3SM -SN BR BKN014 OVC033 M01/M01 A2970 RMK AO2 UPB10E12SNE10B12 SLP056 P0000 60000 70001 T10061006 11006 21017 58016 FZRANO
  • 271132Z AUTO 00000KT 1 1/2SM -SN BR BKN014 OVC020 M01/M01 A2971 RMK AO2 UPB10E12SNE10B12 P0000 FZRANO

TAF PAVD
Valid from the 27 at 12:00 until the 28 at 12:00 UTC


271127Z 2712/2812 VRB03KT 3SM -SN BR OVC015
TEMPO 2712/2716 2SM -SN BR OVC015
FM271800 09005KT 4SM -SN OVC015
FM272300 09003KT 2SM -SN BR OVC009
FM280300 VRB02KT 2SM -SN BR OVC009
PAZA FIR / North America



MET'MAP, your aeronautical weather chart ! - Copyright ORBIFLY December 2007 - Disclaimer

ORBIFLY MET'MAP TEAM :

Programming & Development : Alexandra Zaïnal
Concept & original design : Baudouin d'Aumeries
Assistance for programming : Marc-Olivier Méhu
Technical & hardware support : Manuel Goepfert

Contact : metmap@orbifly.com




SOURCES & CREDITS :

   NOAA       Earth
Advisory